createdAt,value
2023-05-16T00:00:38.019Z,10.57
2023-05-16T00:03:07.297Z,10.49
2023-05-16T00:05:36.838Z,10.65
2023-05-16T00:08:06.490Z,10.55
2023-05-16T00:10:35.639Z,10.64
2023-05-16T00:13:04.847Z,10.60
2023-05-16T00:15:35.871Z,10.60
2023-05-16T00:18:05.090Z,10.53
2023-05-16T00:20:34.679Z,10.56
2023-05-16T00:23:03.804Z,10.54
2023-05-16T00:25:32.850Z,10.59
2023-05-16T00:28:01.936Z,10.49
2023-05-16T00:30:30.985Z,10.59
2023-05-16T00:33:02.488Z,10.59
2023-05-16T00:35:32.360Z,10.52
2023-05-16T00:38:01.594Z,10.69
2023-05-16T00:40:30.674Z,10.70
2023-05-16T00:43:00.286Z,10.73
2023-05-16T00:45:29.826Z,10.75
2023-05-16T00:48:00.439Z,10.79
2023-05-16T00:50:29.935Z,10.62
2023-05-16T00:52:59.164Z,10.71
2023-05-16T00:55:28.538Z,10.76
2023-05-16T00:57:59.297Z,10.76
2023-05-16T01:00:28.648Z,10.68
2023-05-16T01:02:58.102Z,10.79
2023-05-16T01:05:29.382Z,10.73
2023-05-16T01:07:58.820Z,10.67
2023-05-16T01:10:33.210Z,10.60
2023-05-16T01:13:12.744Z,10.74
2023-05-16T01:15:47.349Z,10.80
2023-05-16T01:18:26.230Z,10.91
2023-05-16T01:21:04.065Z,10.92
2023-05-16T01:23:45.066Z,10.92
2023-05-16T01:26:19.562Z,10.84
2023-05-16T01:28:49.168Z,10.81
2023-05-16T01:31:19.093Z,10.72
2023-05-16T01:33:48.892Z,10.77
2023-05-16T01:36:25.429Z,10.87
2023-05-16T01:39:03.351Z,10.88
2023-05-16T01:41:44.484Z,10.73
2023-05-16T01:44:20.338Z,10.79
2023-05-16T01:46:52.182Z,10.87
2023-05-16T01:49:27.644Z,10.83
2023-05-16T01:52:01.262Z,10.73
2023-05-16T01:54:34.137Z,10.72
2023-05-16T01:57:08.344Z,10.68
2023-05-16T01:59:39.622Z,10.72
2023-05-16T02:02:08.738Z,10.71
2023-05-16T02:04:39.515Z,10.68
2023-05-16T02:07:08.659Z,10.73
2023-05-16T02:09:37.807Z,10.63
2023-05-16T02:12:11.040Z,10.57
2023-05-16T02:14:40.136Z,10.59
2023-05-16T02:17:09.719Z,10.57
2023-05-16T02:19:38.882Z,10.71
2023-05-16T02:22:09.370Z,10.75
2023-05-16T02:24:38.784Z,10.60
2023-05-16T02:27:08.125Z,10.58
2023-05-16T02:29:38.677Z,10.59
2023-05-16T02:32:08.795Z,10.57
2023-05-16T02:34:37.841Z,10.56
2023-05-16T02:37:07.301Z,10.50
2023-05-16T02:39:36.390Z,10.42
2023-05-16T02:42:05.893Z,10.45
2023-05-16T02:44:35.128Z,10.57
2023-05-16T02:47:05.766Z,10.49
2023-05-16T02:49:35.058Z,10.54
2023-05-16T02:52:04.341Z,10.46
2023-05-16T02:54:33.889Z,10.38
2023-05-16T02:57:03.107Z,10.54
2023-05-16T02:59:32.295Z,10.59
2023-05-16T03:02:01.473Z,10.33
2023-05-16T03:04:32.146Z,10.55
2023-05-16T03:07:01.376Z,10.43
2023-05-16T03:09:30.484Z,10.41
2023-05-16T03:11:59.733Z,10.43
2023-05-16T03:14:28.776Z,10.40
2023-05-16T03:16:57.854Z,10.35
2023-05-16T03:19:27.848Z,10.47
2023-05-16T03:21:58.632Z,10.26
2023-05-16T03:24:27.721Z,10.38
2023-05-16T03:26:56.894Z,10.20
2023-05-16T03:29:26.913Z,10.18
2023-05-16T03:31:56.201Z,10.31
2023-05-16T03:34:25.684Z,10.19
2023-05-16T03:36:54.806Z,10.14
2023-05-16T03:39:25.500Z,10.13
2023-05-16T03:41:56.154Z,10.08
2023-05-16T03:44:25.262Z,10.10
2023-05-16T03:46:55.923Z,10.20
2023-05-16T03:49:28.026Z,10.10
2023-05-16T03:51:57.486Z,10.18
2023-05-16T03:54:27.908Z,10.27
2023-05-16T03:56:56.961Z,10.19
2023-05-16T03:59:26.072Z,10.17
2023-05-16T04:01:55.170Z,10.19
2023-05-16T04:04:24.271Z,10.12
2023-05-16T04:06:53.376Z,10.10
2023-05-16T04:09:22.484Z,10.05
2023-05-16T04:11:52.923Z,10.11
2023-05-16T04:14:22.052Z,10.15
2023-05-16T04:16:51.722Z,10.23
2023-05-16T04:19:21.144Z,10.20
2023-05-16T04:21:50.521Z,10.07
2023-05-16T04:24:19.645Z,10.09
2023-05-16T04:26:48.710Z,10.08
2023-05-16T04:29:19.629Z,10.14
2023-05-16T04:31:48.944Z,10.04
2023-05-16T04:34:18.020Z,10.10
2023-05-16T04:36:47.241Z,10.03
2023-05-16T04:39:16.322Z,10.19
2023-05-16T04:41:45.440Z,10.16
2023-05-16T04:44:14.734Z,10.06
2023-05-16T04:46:45.253Z,10.04
2023-05-16T04:49:14.465Z,10.15
2023-05-16T04:51:43.618Z,10.30
2023-05-16T04:54:12.722Z,10.27
2023-05-16T04:56:41.882Z,10.27
2023-05-16T04:59:12.624Z,10.11
2023-05-16T05:01:42.764Z,10.15
2023-05-16T05:04:14.065Z,10.01
2023-05-16T05:06:44.295Z,9.86
2023-05-16T05:09:14.269Z,9.87
2023-05-16T05:11:43.335Z,9.90
2023-05-16T05:14:13.148Z,9.92
2023-05-16T05:16:42.295Z,9.86
2023-05-16T05:19:12.839Z,9.94
2023-05-16T05:21:42.046Z,9.84
2023-05-16T05:24:11.411Z,10.00
2023-05-16T05:26:41.022Z,9.92
2023-05-16T05:29:10.150Z,10.45
2023-05-16T05:31:39.254Z,10.36
2023-05-16T05:34:08.777Z,10.76
2023-05-16T05:36:42.347Z,11.03
2023-05-16T05:39:11.551Z,11.27
2023-05-16T05:41:40.978Z,11.23
2023-05-16T05:44:10.173Z,10.83
2023-05-16T05:46:39.570Z,10.66
2023-05-16T05:49:08.851Z,10.70
2023-05-16T05:51:37.992Z,10.56
2023-05-16T05:54:08.685Z,10.72
2023-05-16T05:56:37.836Z,10.85
2023-05-16T05:59:06.903Z,10.70
2023-05-16T06:01:35.969Z,10.93
2023-05-16T06:04:05.122Z,10.74
2023-05-16T06:06:34.429Z,10.90
2023-05-16T06:09:03.552Z,10.92
2023-05-16T06:11:34.019Z,10.87
2023-05-16T06:14:03.100Z,11.37
2023-05-16T06:16:32.174Z,11.67
2023-05-16T06:19:01.433Z,11.91
2023-05-16T06:21:30.589Z,11.61
2023-05-16T06:23:59.673Z,11.88
2023-05-16T06:26:28.770Z,11.31
2023-05-16T06:28:59.191Z,11.00
2023-05-16T06:31:28.279Z,11.36
2023-05-16T06:33:57.371Z,11.99
2023-05-16T06:36:26.567Z,12.24
2023-05-16T06:38:55.587Z,12.60
2023-05-16T06:41:24.674Z,12.68
2023-05-16T06:43:53.832Z,12.57
2023-05-16T06:46:24.493Z,13.00
2023-05-16T06:48:53.693Z,13.38
2023-05-16T06:51:23.157Z,12.24
2023-05-16T06:53:52.312Z,11.85
2023-05-16T06:56:21.574Z,11.41
2023-05-16T06:58:50.870Z,11.23
2023-05-16T07:01:20.010Z,11.22
2023-05-16T07:03:50.661Z,11.22
2023-05-16T07:06:19.897Z,11.06
2023-05-16T07:08:48.980Z,11.07
2023-05-16T07:11:18.151Z,11.11
2023-05-16T07:13:47.254Z,11.22
2023-05-16T07:16:16.505Z,11.06
2023-05-16T07:18:45.810Z,11.27
2023-05-16T07:21:16.824Z,11.07
2023-05-16T07:23:45.920Z,11.52
2023-05-16T07:26:15.988Z,12.04
2023-05-16T07:28:45.142Z,12.72
2023-05-16T07:31:14.322Z,12.92
2023-05-16T07:33:43.679Z,12.55
2023-05-16T07:36:17.026Z,13.12
2023-05-16T07:38:48.188Z,12.54
2023-05-16T07:41:17.292Z,12.10
2023-05-16T07:43:46.436Z,11.63
2023-05-16T07:46:15.648Z,12.60
2023-05-16T07:48:44.829Z,13.00
2023-05-16T07:51:13.990Z,13.40
2023-05-16T07:53:43.108Z,13.67
2023-05-16T07:56:13.979Z,14.32
2023-05-16T07:58:43.895Z,13.83
2023-05-16T08:01:13.071Z,12.88
2023-05-16T08:03:42.278Z,11.88
2023-05-16T08:06:11.630Z,12.61
2023-05-16T08:08:40.812Z,12.54
2023-05-16T08:11:09.978Z,13.54
2023-05-16T08:13:40.519Z,13.87
2023-05-16T08:16:09.818Z,13.60
2023-05-16T08:18:39.191Z,14.62
2023-05-16T08:21:09.068Z,14.45
2023-05-16T08:23:40.441Z,13.84
2023-05-16T08:26:09.749Z,14.10
2023-05-16T08:28:40.222Z,15.03
2023-05-16T08:31:09.420Z,13.80
2023-05-16T08:33:38.559Z,13.75
2023-05-16T08:36:08.406Z,13.14
2023-05-16T08:38:37.658Z,13.63
2023-05-16T08:41:07.154Z,14.24
2023-05-16T08:43:36.727Z,14.97
2023-05-16T08:46:09.326Z,14.48
2023-05-16T08:48:39.828Z,13.76
2023-05-16T08:51:11.786Z,13.60
2023-05-16T08:53:46.133Z,12.89
2023-05-16T08:56:15.900Z,13.83
2023-05-16T08:58:46.305Z,14.49
2023-05-16T09:01:16.904Z,14.29
2023-05-16T09:03:46.444Z,14.33
2023-05-16T09:06:16.032Z,15.12
2023-05-16T09:08:45.185Z,13.70
2023-05-16T09:11:14.396Z,13.04
2023-05-16T09:13:43.562Z,13.03
2023-05-16T09:16:14.363Z,12.69
2023-05-16T09:18:46.643Z,13.29
2023-05-16T09:21:16.655Z,12.81
2023-05-16T09:23:46.513Z,12.67
2023-05-16T09:26:16.487Z,13.73
2023-05-16T09:28:45.595Z,14.51
2023-05-16T09:31:26.705Z,13.91
2023-05-16T09:33:58.233Z,14.42
2023-05-16T09:36:27.719Z,14.98
2023-05-16T09:38:56.903Z,15.01
2023-05-16T09:41:26.320Z,15.25
2023-05-16T09:43:56.530Z,14.95
2023-05-16T09:46:28.631Z,15.86
2023-05-16T09:48:59.181Z,15.87
2023-05-16T09:51:28.740Z,15.30
2023-05-16T09:54:00.508Z,15.16
2023-05-16T09:56:30.526Z,15.14
2023-05-16T09:58:59.643Z,14.61
2023-05-16T10:01:28.952Z,15.40
2023-05-16T10:03:59.551Z,14.69
2023-05-16T10:06:29.047Z,14.80
2023-05-16T10:08:59.443Z,14.37
2023-05-16T10:11:30.474Z,14.48
2023-05-16T10:13:59.687Z,14.78
2023-05-16T10:16:29.744Z,14.62
2023-05-16T10:19:01.789Z,14.54
2023-05-16T10:21:33.984Z,14.14
2023-05-16T10:24:07.919Z,14.05
2023-05-16T10:26:37.187Z,13.66
2023-05-16T10:29:07.475Z,13.12
2023-05-16T10:31:37.762Z,14.77
2023-05-16T10:34:08.430Z,15.20
2023-05-16T10:36:39.387Z,15.29
2023-05-16T10:39:09.062Z,14.75
2023-05-16T10:41:38.644Z,14.45
2023-05-16T10:44:16.785Z,15.55
2023-05-16T10:46:47.877Z,14.81
2023-05-16T10:49:26.416Z,14.90
2023-05-16T10:52:06.145Z,14.24
2023-05-16T10:54:40.367Z,14.40
2023-05-16T10:57:12.196Z,13.25
2023-05-16T10:59:46.141Z,13.10
2023-05-16T11:02:27.117Z,13.00
2023-05-16T11:05:00.010Z,13.26
2023-05-16T11:07:34.222Z,14.81
2023-05-16T11:10:09.295Z,14.43
2023-05-16T11:12:46.485Z,13.49
2023-05-16T11:15:25.676Z,13.33
2023-05-16T11:18:07.406Z,13.22
2023-05-16T11:20:39.698Z,13.54
2023-05-16T11:23:26.389Z,14.44
2023-05-16T11:25:57.507Z,14.37
2023-05-16T11:28:27.928Z,14.63
2023-05-16T11:30:59.713Z,13.39
2023-05-16T11:33:35.138Z,14.45
2023-05-16T11:38:43.672Z,13.59
2023-05-16T11:41:15.430Z,14.23
2023-05-16T11:43:46.355Z,14.07
2023-05-16T11:46:16.454Z,13.92
2023-05-16T11:48:47.194Z,15.16
2023-05-16T11:51:20.434Z,15.75
2023-05-16T11:53:50.811Z,14.86
2023-05-16T11:56:21.650Z,13.32
2023-05-16T11:58:51.822Z,13.05
2023-05-16T12:01:20.946Z,14.78
2023-05-16T12:03:57.983Z,14.63
2023-05-16T12:06:31.151Z,14.46
2023-05-16T12:09:02.522Z,14.80
2023-05-16T12:11:32.251Z,14.60
2023-05-16T12:14:01.514Z,14.82
2023-05-16T12:16:31.805Z,14.70
2023-05-16T12:19:01.984Z,14.04
2023-05-16T12:21:32.788Z,15.50
2023-05-16T12:24:02.579Z,14.73
2023-05-16T12:26:33.635Z,13.82
2023-05-16T12:29:05.745Z,13.57
2023-05-16T12:31:39.094Z,13.55
2023-05-16T12:34:18.389Z,14.72
2023-05-16T12:36:54.275Z,13.84
2023-05-16T12:39:24.040Z,15.14
2023-05-16T12:41:53.361Z,14.60
2023-05-16T12:44:23.671Z,14.21
2023-05-16T12:46:55.002Z,14.72
2023-05-16T12:49:24.320Z,14.16
2023-05-16T12:51:57.211Z,13.00
2023-05-16T12:54:26.461Z,12.58
2023-05-16T12:56:55.851Z,11.91
2023-05-16T12:59:24.989Z,11.93
2023-05-16T13:01:54.186Z,14.14
2023-05-16T13:04:23.692Z,14.68
2023-05-16T13:06:59.289Z,13.49
2023-05-16T13:09:32.684Z,14.78
2023-05-16T13:12:02.433Z,13.61
2023-05-16T13:14:31.644Z,13.30
2023-05-16T13:17:00.834Z,13.89
2023-05-16T13:19:31.738Z,13.45
2023-05-16T13:22:02.410Z,13.29
2023-05-16T13:24:31.756Z,14.43
2023-05-16T13:27:00.956Z,14.73
2023-05-16T13:29:30.741Z,13.97
2023-05-16T13:31:59.979Z,14.20
2023-05-16T13:34:29.448Z,13.47
2023-05-16T13:36:58.659Z,13.27
2023-05-16T13:39:29.568Z,13.93
2023-05-16T13:41:58.997Z,14.11
2023-05-16T13:44:28.123Z,14.43
2023-05-16T13:46:57.809Z,13.58
2023-05-16T13:49:27.033Z,12.77
2023-05-16T13:51:58.222Z,13.54
2023-05-16T13:54:29.039Z,14.26
2023-05-16T13:56:58.152Z,12.81
2023-05-16T13:59:41.157Z,13.64
2023-05-16T14:02:15.260Z,13.62
2023-05-16T14:04:44.349Z,14.27
2023-05-16T14:07:13.500Z,14.62
2023-05-16T14:09:44.588Z,15.31
2023-05-16T14:12:13.732Z,13.82
2023-05-16T14:14:42.910Z,13.54
2023-05-16T14:17:12.052Z,14.04
2023-05-16T14:19:41.209Z,14.91
2023-05-16T14:22:10.388Z,13.67
2023-05-16T14:24:39.594Z,13.44
2023-05-16T14:27:10.090Z,12.63
2023-05-16T14:29:39.253Z,12.34
2023-05-16T14:32:10.520Z,12.62
2023-05-16T14:34:39.715Z,13.28
2023-05-16T14:37:10.214Z,13.93
2023-05-16T14:39:39.578Z,13.74
2023-05-16T14:42:11.097Z,13.47
2023-05-16T14:44:40.199Z,13.38
2023-05-16T14:47:09.440Z,13.21
2023-05-16T14:49:38.580Z,12.83
2023-05-16T14:52:08.220Z,12.88
2023-05-16T14:54:37.814Z,12.87
2023-05-16T14:57:07.393Z,13.01
2023-05-16T14:59:37.869Z,12.92
2023-05-16T15:02:07.306Z,13.04
2023-05-16T15:04:36.540Z,13.68
2023-05-16T15:07:05.920Z,13.96
2023-05-16T15:09:35.035Z,13.81
2023-05-16T15:12:04.401Z,14.08
2023-05-16T15:14:33.534Z,13.13
2023-05-16T15:17:05.362Z,13.26
2023-05-16T15:19:35.804Z,13.49
2023-05-16T15:22:07.787Z,13.29
2023-05-16T15:24:37.195Z,12.80
2023-05-16T15:27:06.801Z,13.15
2023-05-16T15:29:35.972Z,12.49
2023-05-16T15:32:07.572Z,12.36
2023-05-16T15:34:37.185Z,12.41
2023-05-16T15:37:06.511Z,12.00
2023-05-16T15:39:36.056Z,11.95
2023-05-16T15:42:10.707Z,11.89
2023-05-16T15:44:40.848Z,12.03
2023-05-16T15:47:11.377Z,11.74
2023-05-16T15:49:40.566Z,11.08
2023-05-16T15:52:10.029Z,11.23
2023-05-16T15:54:39.168Z,10.93
2023-05-16T15:57:08.308Z,10.94
2023-05-16T15:59:37.527Z,11.15
2023-05-16T16:02:07.915Z,11.07
2023-05-16T16:04:38.403Z,11.20
2023-05-16T16:07:07.544Z,11.75
2023-05-16T16:09:36.714Z,11.87
2023-05-16T16:12:06.256Z,12.19
2023-05-16T16:14:35.437Z,12.50
2023-05-16T16:17:07.723Z,11.96
2023-05-16T16:19:38.199Z,12.08
2023-05-16T16:22:07.385Z,12.68
2023-05-16T16:24:36.557Z,12.01
2023-05-16T16:27:06.116Z,11.51
2023-05-16T16:29:35.215Z,11.09
2023-05-16T16:32:04.362Z,11.06
2023-05-16T16:34:33.478Z,11.74
2023-05-16T16:37:03.962Z,11.46
2023-05-16T16:39:33.377Z,11.38
2023-05-16T16:42:02.559Z,11.52
2023-05-16T16:44:31.633Z,12.03
2023-05-16T16:47:00.833Z,11.75
2023-05-16T16:49:31.325Z,11.22
2023-05-16T16:52:00.476Z,11.46
2023-05-16T16:54:30.974Z,11.88
2023-05-16T16:57:00.115Z,11.58
2023-05-16T16:59:29.253Z,11.28
2023-05-16T17:01:58.361Z,11.38
2023-05-16T17:04:27.582Z,11.22
2023-05-16T17:06:56.914Z,10.35
2023-05-16T17:09:27.109Z,10.34
2023-05-16T17:11:57.716Z,9.99
2023-05-16T17:14:27.014Z,9.73
2023-05-16T17:16:56.142Z,9.74
2023-05-16T17:19:25.429Z,9.96
2023-05-16T17:21:54.867Z,9.93
2023-05-16T17:24:24.178Z,10.02
2023-05-16T17:26:53.679Z,9.82
2023-05-16T17:29:24.273Z,9.55
2023-05-16T17:31:53.398Z,9.48
2023-05-16T17:34:23.263Z,9.39
2023-05-16T17:36:52.475Z,9.46
2023-05-16T17:39:21.708Z,9.47
2023-05-16T17:41:50.834Z,9.20
2023-05-16T17:44:19.929Z,9.34
2023-05-16T17:46:50.488Z,9.57
2023-05-16T17:49:19.795Z,9.20
2023-05-16T17:51:50.875Z,9.31
2023-05-16T17:54:21.396Z,9.32
2023-05-16T17:56:51.573Z,9.18
2023-05-16T17:59:21.115Z,9.38
2023-05-16T18:01:51.688Z,9.40
2023-05-16T18:04:24.930Z,9.27
2023-05-16T18:06:54.475Z,9.33
2023-05-16T18:09:24.309Z,9.30
2023-05-16T18:11:53.672Z,9.43
2023-05-16T18:14:28.490Z,9.57
2023-05-16T18:16:59.022Z,9.48
2023-05-16T18:19:28.810Z,9.59
2023-05-16T18:22:02.397Z,9.65
2023-05-16T18:24:31.945Z,9.58
2023-05-16T18:27:03.142Z,9.50
2023-05-16T18:29:32.757Z,9.74
2023-05-16T18:32:03.427Z,9.64
2023-05-16T18:34:32.573Z,9.74
2023-05-16T18:37:02.235Z,9.59
2023-05-16T18:39:32.016Z,9.76
2023-05-16T18:42:01.244Z,9.89
2023-05-16T18:44:30.610Z,9.80
2023-05-16T18:46:59.721Z,9.69
2023-05-16T18:49:35.771Z,9.78
2023-05-16T18:52:05.548Z,9.76
2023-05-16T18:54:35.023Z,9.67
2023-05-16T18:57:08.154Z,9.70
2023-05-16T18:59:37.679Z,9.74
2023-05-16T19:02:06.995Z,9.66
2023-05-16T19:04:37.574Z,9.57
2023-05-16T19:07:08.658Z,9.54
2023-05-16T19:09:39.013Z,9.50
2023-05-16T19:12:09.082Z,9.51
2023-05-16T19:14:38.261Z,9.43
2023-05-16T19:17:07.677Z,9.54
2023-05-16T19:19:38.581Z,9.47
2023-05-16T19:22:07.923Z,9.45
2023-05-16T19:24:37.302Z,9.41
2023-05-16T19:27:09.747Z,9.48
2023-05-16T19:29:39.770Z,9.43
2023-05-16T19:32:10.701Z,9.48
2023-05-16T19:34:41.816Z,9.52
2023-05-16T19:37:11.026Z,9.45
2023-05-16T19:39:40.250Z,9.54
2023-05-16T19:42:09.501Z,9.61
2023-05-16T19:44:38.698Z,9.65
2023-05-16T19:47:08.002Z,9.69
2023-05-16T19:49:37.934Z,9.74
2023-05-16T19:52:11.804Z,9.70
2023-05-16T19:54:41.321Z,9.73
2023-05-16T19:57:10.802Z,9.73
2023-05-16T19:59:39.974Z,9.69
2023-05-16T20:02:09.467Z,9.65
2023-05-16T20:04:38.657Z,9.65
2023-05-16T20:07:09.283Z,9.69
2023-05-16T20:09:40.633Z,9.70
2023-05-16T20:12:10.618Z,9.65
2023-05-16T20:14:40.068Z,9.66
2023-05-16T20:17:09.290Z,9.58
2023-05-16T20:19:43.678Z,9.38
2023-05-16T20:22:14.518Z,9.60
2023-05-16T20:24:43.709Z,9.49
2023-05-16T20:27:12.857Z,9.40
2023-05-16T20:29:41.984Z,9.51
2023-05-16T20:32:11.123Z,9.25
2023-05-16T20:34:41.691Z,9.28
2023-05-16T20:37:11.027Z,9.24
2023-05-16T20:39:41.600Z,9.26
2023-05-16T20:42:11.773Z,9.31
2023-05-16T20:44:41.216Z,9.25
2023-05-16T20:47:10.536Z,9.24
2023-05-16T20:49:39.920Z,9.40
2023-05-16T20:52:09.102Z,9.16
2023-05-16T20:54:38.347Z,9.26
2023-05-16T20:57:08.996Z,9.29
2023-05-16T20:59:38.502Z,9.29
2023-05-16T21:02:10.016Z,9.31
2023-05-16T21:04:39.452Z,9.39
2023-05-16T21:07:08.872Z,9.32
2023-05-16T21:09:39.656Z,9.34
2023-05-16T21:12:10.550Z,9.24
2023-05-16T21:14:39.924Z,9.29
2023-05-16T21:17:09.004Z,9.41
2023-05-16T21:19:38.704Z,9.32
2023-05-16T21:22:07.901Z,9.48
2023-05-16T21:24:37.468Z,9.51
2023-05-16T21:27:06.954Z,9.42
2023-05-16T21:29:37.476Z,9.32
2023-05-16T21:32:09.105Z,9.18
2023-05-16T21:34:38.233Z,9.27
2023-05-16T21:37:08.446Z,9.24
2023-05-16T21:39:37.661Z,9.19
2023-05-16T21:42:07.182Z,9.25
2023-05-16T21:44:37.690Z,9.33
2023-05-16T21:47:06.944Z,9.19
2023-05-16T21:49:36.055Z,9.28
2023-05-16T21:52:07.279Z,9.39
2023-05-16T21:54:36.806Z,9.31
2023-05-16T21:57:06.434Z,9.33
2023-05-16T21:59:36.908Z,9.14
2023-05-16T22:02:07.708Z,9.24
2023-05-16T22:04:36.883Z,9.27
2023-05-16T22:07:06.178Z,9.31
2023-05-16T22:09:35.289Z,9.30
2023-05-16T22:12:04.675Z,9.28
2023-05-16T22:14:33.790Z,9.22
2023-05-16T22:17:04.322Z,9.27
2023-05-16T22:19:33.491Z,9.28
2023-05-16T22:22:02.613Z,9.28
2023-05-16T22:24:32.012Z,9.45
2023-05-16T22:27:01.120Z,9.44
2023-05-16T22:29:31.132Z,9.28
2023-05-16T22:32:00.299Z,9.31
2023-05-16T22:34:30.746Z,9.34
2023-05-16T22:36:59.880Z,9.20
2023-05-16T22:39:29.042Z,9.26
2023-05-16T22:41:58.149Z,9.23
2023-05-16T22:44:27.430Z,9.31
2023-05-16T22:46:56.603Z,9.23
2023-05-16T22:49:25.812Z,9.24
2023-05-16T22:51:56.301Z,9.33
2023-05-16T22:54:25.463Z,9.24
2023-05-16T22:56:54.609Z,9.13
2023-05-16T22:59:23.795Z,9.25
2023-05-16T23:01:52.914Z,9.32
2023-05-16T23:04:22.058Z,9.16
2023-05-16T23:06:51.257Z,9.12
2023-05-16T23:09:21.762Z,9.07
2023-05-16T23:11:51.144Z,9.11
2023-05-16T23:14:20.251Z,9.12
2023-05-16T23:16:49.340Z,9.15
2023-05-16T23:19:19.779Z,9.28
2023-05-16T23:21:49.181Z,9.18
2023-05-16T23:24:18.419Z,9.30
2023-05-16T23:26:49.025Z,9.34
2023-05-16T23:29:18.202Z,9.28
2023-05-16T23:31:47.322Z,9.17
2023-05-16T23:34:16.444Z,9.02
2023-05-16T23:36:45.866Z,8.94
2023-05-16T23:39:14.983Z,8.96
2023-05-16T23:41:44.083Z,8.90
2023-05-16T23:44:14.623Z,8.91
2023-05-16T23:46:43.776Z,8.78
2023-05-16T23:49:12.987Z,8.72
2023-05-16T23:51:55.579Z,8.58
2023-05-16T23:54:25.734Z,8.59
2023-05-16T23:56:54.945Z,8.38
2023-05-16T23:59:25.514Z,8.54
